sensor_id;sensor_type;location;lat;lon;timestamp;pressure;altitude;pressure_sealevel;temperature;humidity
64844;BME280;51310;52.198;5.422;2023-10-13T00:02:02;100982.59;;;16.69;96.31
64844;BME280;51310;52.198;5.422;2023-10-13T00:04:31;100979.56;;;16.62;96.24
64844;BME280;51310;52.198;5.422;2023-10-13T00:07:02;100966.47;;;16.58;96.15
64844;BME280;51310;52.198;5.422;2023-10-13T00:09:30;100975.88;;;16.63;96.42
64844;BME280;51310;52.198;5.422;2023-10-13T00:12:03;100964.50;;;16.60;96.27
64844;BME280;51310;52.198;5.422;2023-10-13T00:14:34;100961.53;;;16.63;96.31
64844;BME280;51310;52.198;5.422;2023-10-13T00:17:05;100951.13;;;16.58;96.17
64844;BME280;51310;52.198;5.422;2023-10-13T00:19:41;100951.25;;;16.57;96.39
64844;BME280;51310;52.198;5.422;2023-10-13T00:22:17;100958.56;;;16.66;96.35
64844;BME280;51310;52.198;5.422;2023-10-13T00:24:45;100963.94;;;16.66;96.41
64844;BME280;51310;52.198;5.422;2023-10-13T00:27:17;100963.09;;;16.65;96.43
64844;BME280;51310;52.198;5.422;2023-10-13T00:30:06;100958.09;;;16.61;96.40
64844;BME280;51310;52.198;5.422;2023-10-13T00:32:52;100957.84;;;16.64;96.49
64844;BME280;51310;52.198;5.422;2023-10-13T00:35:29;100945.28;;;16.53;96.72
64844;BME280;51310;52.198;5.422;2023-10-13T00:38:04;100926.94;;;16.47;96.94
64844;BME280;51310;52.198;5.422;2023-10-13T00:40:39;100932.31;;;16.47;97.09
64844;BME280;51310;52.198;5.422;2023-10-13T00:43:06;100935.63;;;16.51;97.03
64844;BME280;51310;52.198;5.422;2023-10-13T00:45:52;100925.81;;;16.50;97.00
64844;BME280;51310;52.198;5.422;2023-10-13T00:48:29;100934.50;;;16.53;96.99
64844;BME280;51310;52.198;5.422;2023-10-13T00:51:07;100925.81;;;16.50;97.04
64844;BME280;51310;52.198;5.422;2023-10-13T00:53:35;100939.91;;;16.53;97.21
64844;BME280;51310;52.198;5.422;2023-10-13T00:56:06;100934.50;;;16.53;97.19
64844;BME280;51310;52.198;5.422;2023-10-13T00:58:34;100911.16;;;16.42;97.32
64844;BME280;51310;52.198;5.422;2023-10-13T01:01:03;100923.22;;;16.48;97.47
64844;BME280;51310;52.198;5.422;2023-10-13T01:03:48;100916.13;;;16.47;97.54
64844;BME280;51310;52.198;5.422;2023-10-13T01:06:17;100910.63;;;16.49;97.90
64844;BME280;51310;52.198;5.422;2023-10-13T01:08:48;100910.88;;;16.45;97.88
64844;BME280;51310;52.198;5.422;2023-10-13T01:11:18;100900.22;;;16.44;98.03
64844;BME280;51310;52.198;5.422;2023-10-13T01:13:45;100891.81;;;16.37;98.17
64844;BME280;51310;52.198;5.422;2023-10-13T01:16:17;100895.97;;;16.41;98.14
64844;BME280;51310;52.198;5.422;2023-10-13T01:18:47;100897.66;;;16.42;98.21
64844;BME280;51310;52.198;5.422;2023-10-13T01:21:18;100896.41;;;16.47;98.37
64844;BME280;51310;52.198;5.422;2023-10-13T01:23:52;100896.41;;;16.47;98.27
64844;BME280;51310;52.198;5.422;2023-10-13T01:26:18;100881.88;;;16.38;98.27
64844;BME280;51310;52.198;5.422;2023-10-13T01:28:51;100891.75;;;16.49;98.21
64844;BME280;51310;52.198;5.422;2023-10-13T01:31:17;100880.78;;;16.50;98.39
64844;BME280;51310;52.198;5.422;2023-10-13T01:33:56;100870.56;;;16.44;98.18
64844;BME280;51310;52.198;5.422;2023-10-13T01:36:29;100882.66;;;16.50;98.15
64844;BME280;51310;52.198;5.422;2023-10-13T01:39:01;100867.59;;;16.47;98.13
64844;BME280;51310;52.198;5.422;2023-10-13T01:41:27;100868.63;;;16.56;98.03
64844;BME280;51310;52.198;5.422;2023-10-13T01:43:56;100873.31;;;16.54;97.84
64844;BME280;51310;52.198;5.422;2023-10-13T01:46:25;100867.91;;;16.54;97.72
64844;BME280;51310;52.198;5.422;2023-10-13T01:48:53;100858.50;;;16.48;97.97
64844;BME280;51310;52.198;5.422;2023-10-13T01:51:19;100863.34;;;16.54;97.66
64844;BME280;51310;52.198;5.422;2023-10-13T01:53:48;100858.13;;;16.53;97.82
64844;BME280;51310;52.198;5.422;2023-10-13T01:56:22;100853.56;;;16.53;97.83
64844;BME280;51310;52.198;5.422;2023-10-13T01:58:51;100849.03;;;16.54;97.89
64844;BME280;51310;52.198;5.422;2023-10-13T02:01:19;100851.13;;;16.50;97.79
64844;BME280;51310;52.198;5.422;2023-10-13T02:03:55;100848.19;;;16.53;97.78
64844;BME280;51310;52.198;5.422;2023-10-13T02:06:31;100832.06;;;16.42;97.55
64844;BME280;51310;52.198;5.422;2023-10-13T02:09:04;100832.41;;;16.49;97.63
64844;BME280;51310;52.198;5.422;2023-10-13T02:11:51;100831.53;;;16.48;97.60
64844;BME280;51310;52.198;5.422;2023-10-13T02:14:22;100839.22;;;16.53;97.44
64844;BME280;51310;52.198;5.422;2023-10-13T02:16:51;100839.75;;;16.47;97.56
64844;BME280;51310;52.198;5.422;2023-10-13T02:19:38;100834.53;;;16.55;97.36
64844;BME280;51310;52.198;5.422;2023-10-13T02:22:09;100829.69;;;16.49;97.43
64844;BME280;51310;52.198;5.422;2023-10-13T02:24:36;100834.81;;;16.52;97.48
64844;BME280;51310;52.198;5.422;2023-10-13T02:27:06;100813.75;;;16.45;97.51
64844;BME280;51310;52.198;5.422;2023-10-13T02:29:40;100823.28;;;16.50;97.53
64844;BME280;51310;52.198;5.422;2023-10-13T02:32:07;100811.22;;;16.44;97.51
64844;BME280;51310;52.198;5.422;2023-10-13T02:34:44;100816.06;;;16.50;97.52
64844;BME280;51310;52.198;5.422;2023-10-13T02:37:11;100819.75;;;16.49;97.57
64844;BME280;51310;52.198;5.422;2023-10-13T02:39:39;100791.63;;;16.42;97.42
64844;BME280;51310;52.198;5.422;2023-10-13T02:42:10;100802.44;;;16.52;97.46
64844;BME280;51310;52.198;5.422;2023-10-13T02:44:49;100789.50;;;16.45;97.29
64844;BME280;51310;52.198;5.422;2023-10-13T02:47:16;100777.41;;;16.40;97.48
64844;BME280;51310;52.198;5.422;2023-10-13T02:49:44;100774.84;;;16.38;97.29
64844;BME280;51310;52.198;5.422;2023-10-13T02:52:13;100780.69;;;16.43;97.46
64844;BME280;51310;52.198;5.422;2023-10-13T02:54:40;100766.19;;;16.35;97.48
64844;BME280;51310;52.198;5.422;2023-10-13T02:57:16;100764.47;;;16.34;97.68
64844;BME280;51310;52.198;5.422;2023-10-13T02:59:44;100768.47;;;16.39;97.68
64844;BME280;51310;52.198;5.422;2023-10-13T03:02:15;100766.63;;;16.40;97.77
64844;BME280;51310;52.198;5.422;2023-10-13T03:05:01;100761.34;;;16.38;97.67
64844;BME280;51310;52.198;5.422;2023-10-13T03:07:39;100755.53;;;16.33;97.93
64844;BME280;51310;52.198;5.422;2023-10-13T03:10:09;100743.19;;;16.31;97.78
64844;BME280;51310;52.198;5.422;2023-10-13T03:12:37;100719.03;;;16.29;98.17
64844;BME280;51310;52.198;5.422;2023-10-13T03:15:05;100704.28;;;16.23;98.27
64844;BME280;51310;52.198;5.422;2023-10-13T03:17:46;100705.13;;;16.24;98.07
64844;BME280;51310;52.198;5.422;2023-10-13T03:20:14;100703.44;;;16.33;98.42
64844;BME280;51310;52.198;5.422;2023-10-13T03:22:44;100699.19;;;16.30;98.35
64844;BME280;51310;52.198;5.422;2023-10-13T03:25:12;100692.06;;;16.29;98.44
64844;BME280;51310;52.198;5.422;2023-10-13T03:27:47;100692.06;;;16.29;98.36
64844;BME280;51310;52.198;5.422;2023-10-13T03:30:27;100690.81;;;16.33;98.49
64844;BME280;51310;52.198;5.422;2023-10-13T03:33:05;100697.47;;;16.29;98.50
64844;BME280;51310;52.198;5.422;2023-10-13T03:35:34;100679.84;;;16.25;98.62
64844;BME280;51310;52.198;5.422;2023-10-13T03:38:04;100680.69;;;16.26;98.74
64844;BME280;51310;52.198;5.422;2023-10-13T03:40:49;100686.09;;;16.26;99.02
64844;BME280;51310;52.198;5.422;2023-10-13T03:43:22;100668.34;;;16.23;98.99
64844;BME280;51310;52.198;5.422;2023-10-13T03:45:54;100662.66;;;16.16;99.04
64844;BME280;51310;52.198;5.422;2023-10-13T03:48:26;100650.19;;;16.25;99.01
64844;BME280;51310;52.198;5.422;2023-10-13T03:51:10;100651.44;;;16.21;99.29
64844;BME280;51310;52.198;5.422;2023-10-13T03:53:40;100637.00;;;16.22;99.15
64844;BME280;51310;52.198;5.422;2023-10-13T03:56:22;100633.88;;;16.17;99.38
64844;BME280;51310;52.198;5.422;2023-10-13T03:58:53;100603.91;;;16.10;99.37
64844;BME280;51310;52.198;5.422;2023-10-13T04:01:24;100612.00;;;16.20;99.44
64844;BME280;51310;52.198;5.422;2023-10-13T04:03:58;100602.91;;;16.21;99.45
64844;BME280;51310;52.198;5.422;2023-10-13T04:06:35;100588.47;;;16.22;99.69
64844;BME280;51310;52.198;5.422;2023-10-13T04:09:21;100584.75;;;16.23;99.51
64844;BME280;51310;52.198;5.422;2023-10-13T04:12:04;100567.00;;;16.11;99.51
64844;BME280;51310;52.198;5.422;2023-10-13T04:14:41;100560.63;;;16.12;99.75
64844;BME280;51310;52.198;5.422;2023-10-13T04:17:24;100558.22;;;16.09;99.68
64844;BME280;51310;52.198;5.422;2023-10-13T04:19:55;100556.94;;;16.13;99.87
64844;BME280;51310;52.198;5.422;2023-10-13T04:22:42;100559.78;;;16.11;100.00
64844;BME280;51310;52.198;5.422;2023-10-13T04:25:26;100545.88;;;16.06;100.00
64844;BME280;51310;52.198;5.422;2023-10-13T04:28:13;100558.94;;;16.11;100.00
64844;BME280;51310;52.198;5.422;2023-10-13T04:30:46;100536.94;;;16.06;100.00
64844;BME280;51310;52.198;5.422;2023-10-13T04:33:30;100532.94;;;16.10;100.00
64844;BME280;51310;52.198;5.422;2023-10-13T04:36:13;100527.56;;;16.10;100.00
64844;BME280;51310;52.198;5.422;2023-10-13T04:41:38;100508.56;;;16.01;100.00
64844;BME280;51310;52.198;5.422;2023-10-13T04:44:08;100514.06;;;16.10;100.00
64844;BME280;51310;52.198;5.422;2023-10-13T04:46:52;100512.69;;;16.06;100.00
64844;BME280;51310;52.198;5.422;2023-10-13T04:49:32;100480.59;;;16.02;100.00
64844;BME280;51310;52.198;5.422;2023-10-13T04:52:02;100496.78;;;16.02;100.00
64844;BME280;51310;52.198;5.422;2023-10-13T04:54:43;100522.16;;;16.10;100.00
64844;BME280;51310;52.198;5.422;2023-10-13T04:57:24;100506.72;;;16.12;100.00
64844;BME280;51310;52.198;5.422;2023-10-13T05:00:09;100491.25;;;16.04;100.00
64844;BME280;51310;52.198;5.422;2023-10-13T05:02:38;100497.66;;;16.13;100.00
64844;BME280;51310;52.198;5.422;2023-10-13T05:05:15;100474.94;;;16.06;100.00
64844;BME280;51310;52.198;5.422;2023-10-13T05:07:45;100484.59;;;16.18;100.00
64844;BME280;51310;52.198;5.422;2023-10-13T05:10:30;100474.34;;;16.12;100.00
64844;BME280;51310;52.198;5.422;2023-10-13T05:13:15;100476.06;;;16.22;100.00
64844;BME280;51310;52.198;5.422;2023-10-13T05:16:00;100470.38;;;16.26;100.00
64844;BME280;51310;52.198;5.422;2023-10-13T05:18:45;100470.97;;;16.29;100.00
64844;BME280;51310;52.198;5.422;2023-10-13T05:21:29;100457.63;;;16.37;100.00
64844;BME280;51310;52.198;5.422;2023-10-13T05:24:14;100466.13;;;16.42;100.00
64844;BME280;51310;52.198;5.422;2023-10-13T05:26:59;100448.94;;;16.43;100.00
64844;BME280;51310;52.198;5.422;2023-10-13T05:29:47;100457.88;;;16.54;100.00
64844;BME280;51310;52.198;5.422;2023-10-13T05:32:33;100472.75;;;16.68;100.00
64844;BME280;51310;52.198;5.422;2023-10-13T05:35:20;100474.03;;;16.73;100.00
64844;BME280;51310;52.198;5.422;2023-10-13T05:38:05;100466.47;;;16.77;100.00
64844;BME280;51310;52.198;5.422;2023-10-13T05:40:59;100468.63;;;16.83;100.00
64844;BME280;51310;52.198;5.422;2023-10-13T05:43:45;100466.34;;;16.78;100.00
64844;BME280;51310;52.198;5.422;2023-10-13T05:46:31;100434.28;;;16.75;100.00
64844;BME280;51310;52.198;5.422;2023-10-13T05:49:04;100437.66;;;16.77;100.00
64844;BME280;51310;52.198;5.422;2023-10-13T05:51:43;100452.59;;;16.81;99.82
64844;BME280;51310;52.198;5.422;2023-10-13T05:54:47;100425.75;;;16.70;98.98
64844;BME280;51310;52.198;5.422;2023-10-13T05:57:31;100442.38;;;16.75;98.69
64844;BME280;51310;52.198;5.422;2023-10-13T06:00:16;100433.13;;;16.68;98.33
64844;BME280;51310;52.198;5.422;2023-10-13T06:03:01;100423.53;;;16.56;97.83
64844;BME280;51310;52.198;5.422;2023-10-13T06:05:53;100432.72;;;16.63;97.32
64844;BME280;51310;52.198;5.422;2023-10-13T06:08:37;100428.34;;;16.52;96.98
64844;BME280;51310;52.198;5.422;2023-10-13T06:11:22;100434.31;;;16.56;96.75
64844;BME280;51310;52.198;5.422;2023-10-13T06:14:06;100430.91;;;16.54;96.63
64844;BME280;51310;52.198;5.422;2023-10-13T06:16:51;100420.16;;;16.44;96.54
64844;BME280;51310;52.198;5.422;2023-10-13T06:19:36;100427.78;;;16.49;96.57
64844;BME280;51310;52.198;5.422;2023-10-13T06:22:20;100420.69;;;16.48;96.89
64844;BME280;51310;52.198;5.422;2023-10-13T06:25:21;100405.78;;;16.43;96.89
64844;BME280;51310;52.198;5.422;2023-10-13T06:28:06;100400.13;;;16.37;97.15
64844;BME280;51310;52.198;5.422;2023-10-13T06:30:56;100410.91;;;16.47;97.33
64844;BME280;51310;52.198;5.422;2023-10-13T06:33:23;100397.16;;;16.40;97.28
64844;BME280;51310;52.198;5.422;2023-10-13T06:35:57;100395.16;;;16.42;97.33
64844;BME280;51310;52.198;5.422;2023-10-13T06:38:24;100406.94;;;16.51;97.58
64844;BME280;51310;52.198;5.422;2023-10-13T06:40:50;100386.91;;;16.43;97.90
64844;BME280;51310;52.198;5.422;2023-10-13T06:43:18;100403.94;;;16.54;97.79
64844;BME280;51310;52.198;5.422;2023-10-13T06:45:48;100406.63;;;16.54;98.08
64844;BME280;51310;52.198;5.422;2023-10-13T06:48:26;100384.91;;;16.55;98.32
64844;BME280;51310;52.198;5.422;2023-10-13T06:50:53;100397.66;;;16.63;98.42
64844;BME280;51310;52.198;5.422;2023-10-13T06:53:22;100387.31;;;16.58;98.38
64844;BME280;51310;52.198;5.422;2023-10-13T06:55:48;100379.34;;;16.57;98.58
64844;BME280;51310;52.198;5.422;2023-10-13T06:58:18;100376.38;;;16.60;98.48
64844;BME280;51310;52.198;5.422;2023-10-13T07:00:50;100386.56;;;16.66;98.67
64844;BME280;51310;52.198;5.422;2023-10-13T07:03:19;100369.25;;;16.69;98.96
64844;BME280;51310;52.198;5.422;2023-10-13T07:05:46;100369.78;;;16.72;99.08
64844;BME280;51310;52.198;5.422;2023-10-13T07:08:15;100350.38;;;16.69;99.16
64844;BME280;51310;52.198;5.422;2023-10-13T07:10:55;100360.84;;;16.81;99.37
64844;BME280;51310;52.198;5.422;2023-10-13T07:13:31;100351.59;;;16.84;99.35
64844;BME280;51310;52.198;5.422;2023-10-13T07:16:02;100331.44;;;16.78;99.46
64844;BME280;51310;52.198;5.422;2023-10-13T07:18:34;100344.63;;;16.91;99.64
64844;BME280;51310;52.198;5.422;2023-10-13T07:21:09;100331.66;;;16.95;99.81
64844;BME280;51310;52.198;5.422;2023-10-13T07:23:38;100326.38;;;17.03;99.81
64844;BME280;51310;52.198;5.422;2023-10-13T07:26:05;100311.72;;;17.05;99.89
64844;BME280;51310;52.198;5.422;2023-10-13T07:28:34;100323.31;;;17.16;99.83
64844;BME280;51310;52.198;5.422;2023-10-13T07:31:15;100304.00;;;17.11;100.00
64844;BME280;51310;52.198;5.422;2023-10-13T07:33:41;100302.22;;;17.19;100.00
64844;BME280;51310;52.198;5.422;2023-10-13T07:36:09;100318.34;;;17.29;99.92
64844;BME280;51310;52.198;5.422;2023-10-13T07:38:55;100287.91;;;17.19;99.94
64844;BME280;51310;52.198;5.422;2023-10-13T07:41:40;100325.41;;;17.40;99.71
64844;BME280;51310;52.198;5.422;2023-10-13T07:44:07;100303.19;;;17.46;99.79
64844;BME280;51310;52.198;5.422;2023-10-13T07:46:33;100305.50;;;17.41;99.66
64844;BME280;51310;52.198;5.422;2023-10-13T07:49:01;100326.72;;;17.54;99.50
64844;BME280;51310;52.198;5.422;2023-10-13T07:51:37;100299.56;;;17.55;98.93
64844;BME280;51310;52.198;5.422;2023-10-13T07:54:12;100302.84;;;17.49;98.73
64844;BME280;51310;52.198;5.422;2023-10-13T07:56:44;100312.75;;;17.58;98.23
64844;BME280;51310;52.198;5.422;2023-10-13T07:59:09;100287.06;;;17.54;97.66
64844;BME280;51310;52.198;5.422;2023-10-13T08:01:35;100297.06;;;17.62;97.40
64844;BME280;51310;52.198;5.422;2023-10-13T08:04:01;100294.06;;;17.47;96.56
64844;BME280;51310;52.198;5.422;2023-10-13T08:06:31;100304.72;;;17.66;96.44
64844;BME280;51310;52.198;5.422;2023-10-13T08:08:57;100326.00;;;17.69;96.45
64844;BME280;51310;52.198;5.422;2023-10-13T08:11:43;100307.78;;;17.72;95.96
64844;BME280;51310;52.198;5.422;2023-10-13T08:14:09;100280.78;;;17.72;95.62
64844;BME280;51310;52.198;5.422;2023-10-13T08:16:39;100288.09;;;17.79;95.29
64844;BME280;51310;52.198;5.422;2023-10-13T08:19:26;100292.38;;;17.82;94.49
64844;BME280;51310;52.198;5.422;2023-10-13T08:21:59;100298.63;;;17.82;94.35
64844;BME280;51310;52.198;5.422;2023-10-13T08:24:46;100282.09;;;17.85;94.37
64844;BME280;51310;52.198;5.422;2023-10-13T08:27:19;100288.88;;;17.89;94.04
64844;BME280;51310;52.198;5.422;2023-10-13T08:30:14;100281.16;;;17.95;93.50
64844;BME280;51310;52.198;5.422;2023-10-13T08:32:51;100268.13;;;17.90;93.14
64844;BME280;51310;52.198;5.422;2023-10-13T08:35:22;100279.19;;;18.05;93.08
64844;BME280;51310;52.198;5.422;2023-10-13T08:38:00;100278.41;;;18.13;92.35
64844;BME280;51310;52.198;5.422;2023-10-13T08:40:30;100281.47;;;18.18;91.78
64844;BME280;51310;52.198;5.422;2023-10-13T08:43:12;100249.88;;;18.18;91.83
64844;BME280;51310;52.198;5.422;2023-10-13T08:45:43;100248.69;;;18.21;91.13
64844;BME280;51310;52.198;5.422;2023-10-13T08:48:11;100255.16;;;18.28;90.60
64844;BME280;51310;52.198;5.422;2023-10-13T08:50:48;100259.94;;;18.34;89.79
64844;BME280;51310;52.198;5.422;2023-10-13T08:53:25;100241.47;;;18.29;89.50
64844;BME280;51310;52.198;5.422;2023-10-13T08:56:10;100249.44;;;18.31;89.10
64844;BME280;51310;52.198;5.422;2023-10-13T08:58:42;100267.19;;;18.34;88.67
64844;BME280;51310;52.198;5.422;2023-10-13T09:01:23;100253.53;;;18.35;88.29
64844;BME280;51310;52.198;5.422;2023-10-13T09:03:58;100244.03;;;18.31;88.54
64844;BME280;51310;52.198;5.422;2023-10-13T09:06:45;100239.81;;;18.37;88.23
64844;BME280;51310;52.198;5.422;2023-10-13T09:09:30;100240.00;;;18.35;87.81
64844;BME280;51310;52.198;5.422;2023-10-13T09:12:25;100236.41;;;18.35;86.78
64844;BME280;51310;52.198;5.422;2023-10-13T09:15:07;100240.19;;;18.42;86.49
64844;BME280;51310;52.198;5.422;2023-10-13T09:17:46;100231.56;;;18.38;86.63
64844;BME280;51310;52.198;5.422;2023-10-13T09:20:30;100221.22;;;18.34;86.90
64844;BME280;51310;52.198;5.422;2023-10-13T09:23:11;100233.91;;;18.41;86.59
64844;BME280;51310;52.198;5.422;2023-10-13T09:25:50;100219.69;;;18.39;86.99
64844;BME280;51310;52.198;5.422;2023-10-13T09:28:20;100220.88;;;18.37;86.66
64844;BME280;51310;52.198;5.422;2023-10-13T09:30:56;100231.25;;;18.49;86.78
64844;BME280;51310;52.198;5.422;2023-10-13T09:33:28;100217.41;;;18.52;86.17
64844;BME280;51310;52.198;5.422;2023-10-13T09:36:16;100224.53;;;18.62;85.96
64844;BME280;51310;52.198;5.422;2023-10-13T09:38:43;100218.97;;;18.63;85.60
64844;BME280;51310;52.198;5.422;2023-10-13T09:41:29;100203.38;;;18.57;85.68
64844;BME280;51310;52.198;5.422;2023-10-13T09:43:58;100213.69;;;18.62;85.68
64844;BME280;51310;52.198;5.422;2023-10-13T09:46:26;100206.59;;;18.61;85.46
64844;BME280;51310;52.198;5.422;2023-10-13T09:48:58;100204.59;;;18.63;85.41
64844;BME280;51310;52.198;5.422;2023-10-13T09:51:34;100195.28;;;18.65;84.89
64844;BME280;51310;52.198;5.422;2023-10-13T09:54:21;100209.38;;;18.77;84.95
64844;BME280;51310;52.198;5.422;2023-10-13T09:57:06;100178.22;;;18.73;84.42
64844;BME280;51310;52.198;5.422;2023-10-13T09:59:59;100177.91;;;18.76;84.42
64844;BME280;51310;52.198;5.422;2023-10-13T10:02:34;100173.88;;;18.80;84.09
64844;BME280;51310;52.198;5.422;2023-10-13T10:05:00;100179.78;;;18.84;84.12
64844;BME280;51310;52.198;5.422;2023-10-13T10:07:57;100160.66;;;18.77;83.96
64844;BME280;51310;52.198;5.422;2023-10-13T10:10:55;100152.53;;;18.77;83.67
64844;BME280;51310;52.198;5.422;2023-10-13T10:19:26;100165.59;;;19.23;82.32
64844;BME280;51310;52.198;5.422;2023-10-13T10:22:03;100169.16;;;19.31;81.74
64844;BME280;51310;52.198;5.422;2023-10-13T10:25:00;100153.09;;;19.30;81.42
64844;BME280;51310;52.198;5.422;2023-10-13T10:27:31;100166.28;;;19.49;81.04
64844;BME280;51310;52.198;5.422;2023-10-13T10:29:58;100129.53;;;19.55;80.50
64844;BME280;51310;52.198;5.422;2023-10-13T10:32:37;100129.69;;;19.62;80.08
64844;BME280;51310;52.198;5.422;2023-10-13T10:35:09;100141.19;;;19.88;79.74
64844;BME280;51310;52.198;5.422;2023-10-13T10:37:46;100139.59;;;20.02;78.95
64844;BME280;51310;52.198;5.422;2023-10-13T10:40:17;100125.06;;;19.95;78.36
64844;BME280;51310;52.198;5.422;2023-10-13T10:43:06;100121.44;;;20.03;78.52
64844;BME280;51310;52.198;5.422;2023-10-13T10:45:36;100125.16;;;20.02;77.67
64844;BME280;51310;52.198;5.422;2023-10-13T10:48:04;100121.63;;;20.01;78.23
64844;BME280;51310;52.198;5.422;2023-10-13T10:50:56;100122.97;;;19.97;78.13
64844;BME280;51310;52.198;5.422;2023-10-13T10:53:24;100126.38;;;19.99;78.35
64844;BME280;51310;52.198;5.422;2023-10-13T10:56:10;100108.94;;;19.93;77.86
64844;BME280;51310;52.198;5.422;2023-10-13T10:58:54;100116.25;;;19.93;78.12
64844;BME280;51310;52.198;5.422;2023-10-13T11:01:29;100123.50;;;20.01;77.12
64844;BME280;51310;52.198;5.422;2023-10-13T11:04:06;100119.25;;;20.06;76.71
64844;BME280;51310;52.198;5.422;2023-10-13T11:06:56;100103.75;;;20.15;75.90
64844;BME280;51310;52.198;5.422;2023-10-13T11:09:31;100083.66;;;20.32;75.57
64844;BME280;51310;52.198;5.422;2023-10-13T11:12:14;100093.28;;;20.43;74.54
64844;BME280;51310;52.198;5.422;2023-10-13T11:14:43;100099.66;;;20.50;74.48
64844;BME280;51310;52.198;5.422;2023-10-13T11:17:20;100088.84;;;20.42;74.57
64844;BME280;51310;52.198;5.422;2023-10-13T11:19:52;100093.56;;;20.48;74.22
64844;BME280;51310;52.198;5.422;2023-10-13T11:22:20;100071.47;;;20.59;73.66
64844;BME280;51310;52.198;5.422;2023-10-13T11:25:00;100047.41;;;20.56;73.37
64844;BME280;51310;52.198;5.422;2023-10-13T11:27:38;100062.25;;;20.69;72.56
64844;BME280;51310;52.198;5.422;2023-10-13T11:30:27;100049.41;;;20.63;72.37
64844;BME280;51310;52.198;5.422;2023-10-13T11:33:04;100050.38;;;20.70;72.17
64844;BME280;51310;52.198;5.422;2023-10-13T11:35:38;100041.03;;;20.72;71.71
64844;BME280;51310;52.198;5.422;2023-10-13T11:41:00;100030.72;;;20.68;72.12
64844;BME280;51310;52.198;5.422;2023-10-13T11:43:37;100052.00;;;20.79;71.25
64844;BME280;51310;52.198;5.422;2023-10-13T11:46:15;100034.59;;;20.88;70.96
64844;BME280;51310;52.198;5.422;2023-10-13T11:48:45;100030.84;;;20.89;70.09
64844;BME280;51310;52.198;5.422;2023-10-13T11:51:20;100025.06;;;20.92;69.92
64844;BME280;51310;52.198;5.422;2023-10-13T11:53:58;100017.19;;;20.97;69.31
64844;BME280;51310;52.198;5.422;2023-10-13T11:56:24;100026.84;;;20.85;68.42
64844;BME280;51310;52.198;5.422;2023-10-13T11:58:51;100020.75;;;20.83;67.68
64844;BME280;51310;52.198;5.422;2023-10-13T12:01:18;100045.75;;;20.93;68.11
64844;BME280;51310;52.198;5.422;2023-10-13T12:03:48;100030.13;;;20.95;67.76
64844;BME280;51310;52.198;5.422;2023-10-13T12:06:34;100021.31;;;20.93;66.88
64844;BME280;51310;52.198;5.422;2023-10-13T12:09:08;100038.19;;;21.04;66.84
64844;BME280;51310;52.198;5.422;2023-10-13T12:11:53;100040.09;;;21.03;66.28
64844;BME280;51310;52.198;5.422;2023-10-13T12:14:20;100042.88;;;20.95;67.73
64844;BME280;51310;52.198;5.422;2023-10-13T12:17:02;100041.25;;;20.86;68.29
64844;BME280;51310;52.198;5.422;2023-10-13T12:19:30;100025.19;;;20.76;68.10
64844;BME280;51310;52.198;5.422;2023-10-13T12:21:57;100054.34;;;20.82;67.78
64844;BME280;51310;52.198;5.422;2023-10-13T12:24:29;100032.31;;;20.77;67.46
64844;BME280;51310;52.198;5.422;2023-10-13T12:27:08;100036.47;;;20.88;66.98
64844;BME280;51310;52.198;5.422;2023-10-13T12:29:52;100021.31;;;20.93;66.62
64844;BME280;51310;52.198;5.422;2023-10-13T12:32:19;100009.00;;;21.06;66.49
64844;BME280;51310;52.198;5.422;2023-10-13T12:34:50;100017.78;;;21.08;66.10
64844;BME280;51310;52.198;5.422;2023-10-13T12:37:42;100014.41;;;21.06;65.95
64844;BME280;51310;52.198;5.422;2023-10-13T12:40:13;100023.13;;;21.16;66.31
64844;BME280;51310;52.198;5.422;2023-10-13T12:42:59;99999.50;;;21.16;65.93
64844;BME280;51310;52.198;5.422;2023-10-13T12:45:46;100012.81;;;21.11;65.63
64844;BME280;51310;52.198;5.422;2023-10-13T12:48:33;99996.53;;;20.96;65.88
64844;BME280;51310;52.198;5.422;2023-10-13T12:51:19;99997.41;;;20.89;66.73
64844;BME280;51310;52.198;5.422;2023-10-13T12:53:54;100009.78;;;20.91;67.03
64844;BME280;51310;52.198;5.422;2023-10-13T12:56:21;100007.28;;;20.90;66.67
64844;BME280;51310;52.198;5.422;2023-10-13T12:58:53;100022.41;;;20.84;66.99
64844;BME280;51310;52.198;5.422;2023-10-13T13:01:25;100015.19;;;20.76;66.88
64844;BME280;51310;52.198;5.422;2023-10-13T13:03:58;100025.19;;;20.76;67.40
64844;BME280;51310;52.198;5.422;2023-10-13T13:06:27;100034.88;;;20.78;67.87
64844;BME280;51310;52.198;5.422;2023-10-13T13:08:57;100026.94;;;20.69;68.41
64844;BME280;51310;52.198;5.422;2023-10-13T13:11:26;100028.88;;;20.60;68.88
64844;BME280;51310;52.198;5.422;2023-10-13T13:13:55;100018.25;;;20.50;69.79
64844;BME280;51310;52.198;5.422;2023-10-13T13:16:21;100026.69;;;20.55;69.67
64844;BME280;51310;52.198;5.422;2023-10-13T13:18:53;100031.13;;;20.56;69.74
64844;BME280;51310;52.198;5.422;2023-10-13T13:21:21;100014.56;;;20.43;70.76
64844;BME280;51310;52.198;5.422;2023-10-13T13:23:51;100020.00;;;20.43;71.06
64844;BME280;51310;52.198;5.422;2023-10-13T13:26:21;100015.28;;;20.37;71.46
64844;BME280;51310;52.198;5.422;2023-10-13T13:28:48;100013.84;;;20.26;71.76
64844;BME280;51310;52.198;5.422;2023-10-13T13:31:20;100016.13;;;20.14;72.34
64844;BME280;51310;52.198;5.422;2023-10-13T13:33:55;100008.88;;;20.07;72.99
64844;BME280;51310;52.198;5.422;2023-10-13T13:36:21;100007.38;;;20.04;73.03
64844;BME280;51310;52.198;5.422;2023-10-13T13:38:48;100019.53;;;20.08;72.85
64844;BME280;51310;52.198;5.422;2023-10-13T13:41:20;100016.34;;;20.05;74.03
64844;BME280;51310;52.198;5.422;2023-10-13T13:43:49;99987.81;;;19.86;74.43
64844;BME280;51310;52.198;5.422;2023-10-13T13:46:19;100003.75;;;19.81;75.23